createdAt,value
2022-08-04T00:00:14.520Z,99.90
2022-08-04T00:03:19.136Z,99.90
2022-08-04T00:05:58.352Z,99.90
2022-08-04T00:08:55.601Z,99.90
2022-08-04T00:11:26.221Z,99.90
2022-08-04T00:14:05.804Z,99.90
2022-08-04T00:16:44.149Z,99.90
2022-08-04T00:19:22.419Z,99.90
2022-08-04T00:21:56.407Z,99.90
2022-08-04T00:24:24.019Z,99.90
2022-08-04T00:26:54.651Z,99.90
2022-08-04T00:29:23.313Z,99.90
2022-08-04T00:31:56.329Z,99.90
2022-08-04T00:34:27.121Z,99.90
2022-08-04T00:36:55.619Z,99.90
2022-08-04T00:39:23.099Z,99.90
2022-08-04T00:42:08.989Z,99.90
2022-08-04T00:45:05.228Z,99.90
2022-08-04T00:47:57.283Z,99.90
2022-08-04T00:50:36.471Z,99.90
2022-08-04T00:53:13.950Z,99.90
2022-08-04T00:56:05.586Z,99.90
2022-08-04T00:58:47.960Z,99.90
2022-08-04T01:01:54.027Z,99.90
2022-08-04T01:04:29.779Z,99.90
2022-08-04T01:07:07.967Z,99.90
2022-08-04T01:10:03.902Z,99.90
2022-08-04T01:13:10.068Z,99.90
2022-08-04T01:16:05.496Z,99.90
2022-08-04T01:18:57.350Z,99.90
2022-08-04T01:21:38.530Z,99.90
2022-08-04T01:24:25.515Z,99.90
2022-08-04T01:27:30.850Z,99.90
2022-08-04T01:30:02.209Z,99.90
2022-08-04T01:32:38.593Z,99.90
2022-08-04T01:35:46.880Z,99.90
2022-08-04T01:38:35.287Z,99.90
2022-08-04T01:41:10.422Z,99.90
2022-08-04T01:43:47.425Z,99.90
2022-08-04T01:46:17.207Z,99.90
2022-08-04T01:48:54.165Z,99.90
2022-08-04T01:51:24.697Z,99.90
2022-08-04T01:53:51.871Z,99.90
2022-08-04T01:56:21.483Z,99.90
2022-08-04T01:58:48.794Z,99.90
2022-08-04T02:01:15.915Z,99.90
2022-08-04T02:04:20.253Z,99.90
2022-08-04T02:06:58.454Z,99.90
2022-08-04T02:09:34.475Z,99.90
2022-08-04T02:12:46.499Z,99.90
2022-08-04T02:15:28.476Z,99.90
2022-08-04T02:18:05.725Z,99.90
2022-08-04T02:20:43.570Z,99.90
2022-08-04T02:23:15.756Z,99.90
2022-08-04T02:25:58.120Z,99.90
2022-08-04T02:28:30.182Z,99.90
2022-08-04T02:31:08.655Z,99.90
2022-08-04T02:33:44.313Z,99.90
2022-08-04T02:36:19.545Z,99.90
2022-08-04T02:39:00.270Z,99.90
2022-08-04T02:41:29.891Z,99.90
2022-08-04T02:44:00.756Z,99.90
2022-08-04T02:46:29.468Z,99.90
2022-08-04T02:48:57.013Z,99.90
2022-08-04T02:51:30.072Z,99.90
2022-08-04T02:53:59.330Z,99.90
2022-08-04T02:56:30.524Z,99.90
2022-08-04T02:59:05.802Z,99.90
2022-08-04T03:01:33.436Z,99.90
2022-08-04T03:04:35.388Z,99.90
2022-08-04T03:07:18.869Z,99.90
2022-08-04T03:10:17.199Z,99.90
2022-08-04T03:13:02.406Z,99.90
2022-08-04T03:15:53.439Z,99.90
2022-08-04T03:18:39.328Z,99.90
2022-08-04T03:21:16.256Z,99.90
2022-08-04T03:24:04.668Z,99.90
2022-08-04T03:26:55.345Z,99.90
2022-08-04T03:29:35.241Z,99.90
2022-08-04T03:32:06.711Z,99.90
2022-08-04T03:34:58.686Z,99.90
2022-08-04T03:37:54.941Z,99.90
2022-08-04T03:41:00.476Z,99.90
2022-08-04T03:43:59.410Z,99.90
2022-08-04T03:46:45.248Z,99.90
2022-08-04T03:49:37.449Z,99.90
2022-08-04T03:52:32.118Z,99.90
2022-08-04T03:55:02.085Z,99.90
2022-08-04T03:57:37.743Z,99.90
2022-08-04T04:00:07.211Z,99.90
2022-08-04T04:03:01.928Z,99.90
2022-08-04T04:05:59.796Z,99.90
2022-08-04T04:09:16.300Z,99.90
2022-08-04T04:12:21.886Z,99.90
2022-08-04T04:15:24.808Z,99.90
2022-08-04T04:18:22.380Z,99.90
2022-08-04T04:21:04.490Z,99.90
2022-08-04T04:23:38.161Z,99.90
2022-08-04T04:26:30.074Z,99.90
2022-08-04T04:29:04.293Z,99.90
2022-08-04T04:31:34.832Z,99.90
2022-08-04T04:34:35.263Z,99.90
2022-08-04T04:37:17.918Z,99.90
2022-08-04T04:40:22.131Z,99.90
2022-08-04T04:42:52.134Z,99.90
2022-08-04T04:45:38.599Z,99.90
2022-08-04T04:48:44.702Z,99.90
2022-08-04T04:51:36.553Z,99.90
2022-08-04T04:54:15.587Z,99.90
2022-08-04T04:57:01.452Z,99.90
2022-08-04T04:59:34.912Z,99.90
2022-08-04T05:02:27.657Z,99.90
2022-08-04T05:05:09.204Z,99.90
2022-08-04T05:08:43.491Z,99.90
2022-08-04T05:11:02.370Z,99.90
2022-08-04T05:14:34.754Z,99.90
2022-08-04T05:16:47.368Z,99.90
2022-08-04T05:19:33.771Z,99.90
2022-08-04T05:22:14.756Z,99.90
2022-08-04T05:24:46.288Z,99.90
2022-08-04T05:27:22.734Z,99.90
2022-08-04T05:30:00.800Z,99.90
2022-08-04T05:32:32.811Z,99.90
2022-08-04T05:35:05.512Z,99.90
2022-08-04T05:37:34.480Z,99.90
2022-08-04T05:40:05.320Z,99.90
2022-08-04T05:42:37.854Z,99.90
2022-08-04T05:45:07.016Z,99.90
2022-08-04T05:47:35.283Z,99.90
2022-08-04T05:50:07.357Z,99.90
2022-08-04T05:52:36.783Z,99.90
2022-08-04T05:55:05.795Z,99.90
2022-08-04T05:57:34.569Z,99.90
2022-08-04T06:00:19.767Z,99.90
2022-08-04T06:02:54.091Z,99.90
2022-08-04T06:05:21.544Z,99.90
2022-08-04T06:08:12.259Z,99.90
2022-08-04T06:10:40.083Z,99.90
2022-08-04T06:13:48.573Z,99.90
2022-08-04T06:15:59.607Z,99.90
2022-08-04T06:19:56.273Z,99.90
2022-08-04T06:21:22.165Z,99.90
2022-08-04T06:23:52.954Z,99.90
2022-08-04T06:26:30.598Z,99.90
2022-08-04T06:28:58.432Z,99.90
2022-08-04T06:32:31.823Z,99.90
2022-08-04T06:34:32.780Z,99.90
2022-08-04T06:37:00.745Z,99.90
2022-08-04T06:39:29.720Z,99.90
2022-08-04T06:42:17.557Z,99.90
2022-08-04T06:44:48.301Z,99.90
2022-08-04T06:47:19.669Z,99.90
2022-08-04T06:51:26.757Z,99.90
2022-08-04T06:52:37.329Z,99.90
2022-08-04T06:55:06.956Z,99.90
2022-08-04T06:57:37.056Z,99.90
2022-08-04T07:00:12.209Z,99.90
2022-08-04T07:02:49.094Z,99.90
2022-08-04T07:05:17.707Z,99.90
2022-08-04T07:07:57.399Z,99.90
2022-08-04T07:10:29.822Z,99.90
2022-08-04T07:12:57.497Z,99.90
2022-08-04T07:15:26.106Z,99.90
2022-08-04T07:17:54.561Z,99.90
2022-08-04T07:20:35.950Z,99.90
2022-08-04T07:23:07.561Z,99.90
2022-08-04T07:26:00.107Z,99.90
2022-08-04T07:28:27.925Z,99.90
2022-08-04T07:30:57.590Z,99.90
2022-08-04T07:33:26.137Z,99.90
2022-08-04T07:36:10.759Z,99.90
2022-08-04T07:38:50.655Z,99.90
2022-08-04T07:41:40.698Z,99.80
2022-08-04T07:44:09.116Z,99.50
2022-08-04T07:46:37.438Z,99.40
2022-08-04T07:49:06.117Z,99.40
2022-08-04T07:51:35.941Z,99.40
2022-08-04T07:54:05.293Z,99.20
2022-08-04T07:56:34.241Z,99.20
2022-08-04T07:59:02.026Z,99.00
2022-08-04T08:01:29.458Z,99.20
2022-08-04T08:03:58.054Z,98.80
2022-08-04T08:06:32.399Z,98.50
2022-08-04T08:09:13.384Z,98.10
2022-08-04T08:12:36.161Z,97.90
2022-08-04T08:14:31.692Z,98.00
2022-08-04T08:17:01.662Z,97.80
2022-08-04T08:19:30.317Z,97.60
2022-08-04T08:21:59.670Z,97.40
2022-08-04T08:24:32.562Z,97.40
2022-08-04T08:27:00.709Z,97.20
2022-08-04T08:29:29.775Z,97.10
2022-08-04T08:32:02.748Z,97.00
2022-08-04T08:34:35.073Z,97.00
2022-08-04T08:37:31.958Z,97.00
2022-08-04T08:40:32.368Z,96.80
2022-08-04T08:44:04.559Z,96.70
2022-08-04T08:46:55.996Z,96.10
2022-08-04T08:50:06.794Z,95.70
2022-08-04T08:52:56.207Z,95.30
2022-08-04T08:55:43.791Z,95.10
2022-08-04T08:58:29.779Z,95.00
2022-08-04T09:01:29.367Z,95.10
2022-08-04T09:04:27.695Z,95.00
2022-08-04T09:07:04.453Z,95.10
2022-08-04T09:09:44.092Z,95.50
2022-08-04T09:12:32.717Z,95.80
2022-08-04T09:15:06.407Z,95.90
2022-08-04T09:18:01.896Z,95.90
2022-08-04T09:20:45.014Z,95.70
2022-08-04T09:23:21.434Z,95.70
2022-08-04T09:26:03.588Z,95.50
2022-08-04T09:28:54.017Z,95.50
2022-08-04T09:31:29.085Z,95.70
2022-08-04T09:34:42.189Z,96.00
2022-08-04T09:37:32.779Z,96.00
2022-08-04T09:40:53.565Z,96.00
2022-08-04T09:44:42.836Z,95.80
2022-08-04T09:46:54.419Z,95.30
2022-08-04T09:49:42.952Z,95.20
2022-08-04T09:52:28.575Z,95.00
2022-08-04T09:55:24.647Z,94.80
2022-08-04T09:58:44.740Z,94.80
2022-08-04T10:01:23.617Z,94.80
2022-08-04T10:04:00.921Z,94.80
2022-08-04T10:07:00.456Z,94.90
2022-08-04T10:09:54.469Z,94.80
2022-08-04T10:12:24.628Z,94.80
2022-08-04T10:15:09.467Z,95.30
2022-08-04T10:17:53.099Z,95.00
2022-08-04T10:20:36.637Z,95.00
2022-08-04T10:23:32.711Z,94.70
2022-08-04T10:26:29.894Z,94.70
2022-08-04T10:29:10.559Z,94.70
2022-08-04T10:31:46.667Z,94.40
2022-08-04T10:34:22.462Z,94.50
2022-08-04T10:37:00.774Z,94.60
2022-08-04T10:40:05.592Z,94.30
2022-08-04T10:42:39.359Z,94.30
2022-08-04T10:45:24.273Z,94.30
2022-08-04T10:48:34.571Z,94.20
2022-08-04T10:51:05.571Z,94.20
2022-08-04T10:53:38.680Z,94.40
2022-08-04T10:56:20.320Z,94.30
2022-08-04T10:58:55.847Z,94.10
2022-08-04T11:02:01.131Z,94.30
2022-08-04T11:04:52.143Z,94.40
2022-08-04T11:07:21.787Z,94.20
2022-08-04T11:09:49.770Z,94.10
2022-08-04T11:12:27.072Z,94.10
2022-08-04T11:15:05.196Z,94.00
2022-08-04T11:17:38.183Z,93.80
2022-08-04T11:20:35.278Z,93.80
2022-08-04T11:23:16.276Z,93.70
2022-08-04T11:26:11.794Z,93.90
2022-08-04T11:29:03.210Z,93.80
2022-08-04T11:31:39.712Z,93.90
2022-08-04T11:34:26.811Z,93.90
2022-08-04T11:37:20.136Z,94.00
2022-08-04T11:40:18.685Z,93.70
2022-08-04T11:43:07.896Z,93.60
2022-08-04T11:45:42.664Z,93.40
2022-08-04T11:48:20.318Z,93.40
2022-08-04T11:51:03.108Z,93.40
2022-08-04T11:53:38.725Z,93.10
2022-08-04T11:56:12.647Z,92.90
2022-08-04T11:58:41.324Z,92.90
2022-08-04T12:01:29.848Z,92.80
2022-08-04T12:04:29.820Z,92.40
2022-08-04T12:07:35.436Z,92.60
2022-08-04T12:10:41.529Z,92.30
2022-08-04T12:13:14.453Z,91.80
2022-08-04T12:16:02.745Z,91.50
2022-08-04T12:18:43.709Z,91.00
2022-08-04T12:21:30.574Z,91.20
2022-08-04T12:24:06.690Z,91.10
2022-08-04T12:26:38.794Z,90.90
2022-08-04T12:29:10.512Z,90.90
2022-08-04T12:32:09.551Z,90.90
2022-08-04T12:34:44.110Z,90.90
2022-08-04T12:37:50.170Z,90.70
2022-08-04T12:40:29.633Z,90.50
2022-08-04T12:43:18.897Z,90.20
2022-08-04T12:45:50.626Z,90.10
2022-08-04T12:48:23.404Z,90.00
2022-08-04T12:50:57.996Z,89.60
2022-08-04T12:53:35.511Z,89.70
2022-08-04T12:56:27.239Z,89.70
2022-08-04T12:59:02.528Z,89.70
2022-08-04T13:02:07.410Z,89.60
2022-08-04T13:04:29.461Z,89.30
2022-08-04T13:07:11.581Z,88.60
2022-08-04T13:09:39.617Z,86.90
2022-08-04T13:12:24.887Z,88.10
2022-08-04T13:15:09.937Z,87.00
2022-08-04T13:17:57.128Z,86.60
2022-08-04T13:20:29.587Z,86.30
2022-08-04T13:23:09.070Z,86.20
2022-08-04T13:26:43.810Z,86.00
2022-08-04T13:28:31.975Z,86.40
2022-08-04T13:31:06.561Z,85.50
2022-08-04T13:33:38.141Z,86.80
2022-08-04T13:36:08.554Z,86.40
2022-08-04T13:38:39.471Z,85.70
2022-08-04T13:41:09.280Z,86.50
2022-08-04T13:44:18.119Z,87.00
2022-08-04T13:46:51.031Z,87.30
2022-08-04T13:49:42.438Z,88.00
2022-08-04T13:52:10.861Z,88.60
2022-08-04T13:54:45.344Z,89.30
2022-08-04T13:57:19.975Z,89.80
2022-08-04T13:59:53.994Z,90.10
2022-08-04T14:02:30.334Z,90.50
2022-08-04T14:05:04.163Z,90.60
2022-08-04T14:07:34.531Z,90.90
2022-08-04T14:10:12.501Z,91.20
2022-08-04T14:12:48.678Z,91.50
2022-08-04T14:16:02.660Z,91.80
2022-08-04T14:18:25.206Z,92.10
2022-08-04T14:21:08.508Z,92.30
2022-08-04T14:23:48.266Z,92.70
2022-08-04T14:26:33.301Z,92.80
2022-08-04T14:29:28.355Z,93.30
2022-08-04T14:32:22.875Z,94.10
2022-08-04T14:34:53.816Z,94.60
2022-08-04T14:37:23.432Z,94.90
2022-08-04T14:40:18.878Z,95.30
2022-08-04T14:42:55.475Z,95.80
2022-08-04T14:45:30.744Z,96.00
2022-08-04T14:47:59.028Z,96.40
2022-08-04T14:50:46.829Z,96.50
2022-08-04T14:53:22.006Z,96.90
2022-08-04T14:55:57.354Z,96.80
2022-08-04T14:58:42.710Z,97.00
2022-08-04T15:01:17.037Z,97.20
2022-08-04T15:03:50.106Z,97.30
2022-08-04T15:06:26.536Z,97.40
2022-08-04T15:09:01.544Z,97.50
2022-08-04T15:11:29.508Z,97.70
2022-08-04T15:13:58.882Z,97.80
2022-08-04T15:16:35.470Z,98.00
2022-08-04T15:19:04.427Z,98.20
2022-08-04T15:21:33.584Z,98.20
2022-08-04T15:24:01.656Z,98.40
2022-08-04T15:26:43.135Z,98.50
2022-08-04T15:29:17.410Z,98.70
2022-08-04T15:32:03.920Z,98.60
2022-08-04T15:34:55.515Z,98.80
2022-08-04T15:38:03.280Z,99.30
2022-08-04T15:40:48.788Z,99.40
2022-08-04T15:43:37.050Z,99.50
2022-08-04T15:46:41.851Z,99.60
2022-08-04T15:48:53.183Z,99.70
2022-08-04T15:51:30.436Z,99.80
2022-08-04T15:54:02.865Z,99.90
2022-08-04T15:56:31.438Z,99.90
2022-08-04T15:58:59.319Z,99.90
2022-08-04T16:01:28.311Z,99.90
2022-08-04T16:03:59.792Z,99.90
2022-08-04T16:06:30.443Z,99.90
2022-08-04T16:09:06.925Z,99.90
2022-08-04T16:11:41.932Z,99.90
2022-08-04T16:14:11.750Z,99.90
2022-08-04T16:16:54.029Z,99.90
2022-08-04T16:19:57.734Z,99.90
2022-08-04T16:22:38.919Z,99.90
2022-08-04T16:25:09.306Z,99.90
2022-08-04T16:27:41.952Z,99.90
2022-08-04T16:30:15.266Z,99.90
2022-08-04T16:32:48.001Z,99.90
2022-08-04T16:35:23.182Z,99.90
2022-08-04T16:37:54.505Z,99.90
2022-08-04T16:40:43.854Z,99.90
2022-08-04T16:43:16.921Z,99.90
2022-08-04T22:57:43.694Z,99.90
2022-08-04T23:00:20.569Z,99.90
2022-08-04T23:02:56.205Z,99.90
2022-08-04T23:05:24.001Z,99.90
2022-08-04T23:07:56.286Z,99.90
2022-08-04T23:10:24.400Z,99.90
2022-08-04T23:12:51.687Z,99.90
2022-08-04T23:15:18.916Z,99.90
2022-08-04T23:17:47.944Z,99.90
2022-08-04T23:20:23.686Z,99.90
2022-08-04T23:23:14.753Z,99.90
2022-08-04T23:26:07.595Z,99.90
2022-08-04T23:28:32.769Z,99.90
2022-08-04T23:30:59.791Z,99.90
2022-08-04T23:33:49.264Z,99.90
2022-08-04T23:36:16.596Z,99.90
2022-08-04T23:38:43.888Z,99.90
2022-08-04T23:41:17.277Z,99.90
2022-08-04T23:43:55.383Z,99.90
2022-08-04T23:46:23.858Z,99.90
2022-08-04T23:48:53.905Z,99.90
2022-08-04T23:51:21.654Z,99.90
2022-08-04T23:54:02.841Z,99.90
2022-08-04T23:56:33.920Z,99.90
2022-08-04T23:59:03.725Z,99.90
